Gunnar Thorson — OUDU — position and weather

sailwx.info

Track history (hours):
 
Tides and Currents Weather Stations Pressure Air Temp Water Temp Dewpoint Dewpoint Depression Visibility Wind Speed Wind Dir Waves Ship Positions

Oceanographic research ship Gunnar Thorson (Denmark)

Detailed information on ship capabilities available from University of Delaware's Ocean Information Center.

Last reported at 2014-Oct-23 10:26 UTC. Time now 2014-Oct-25 21:12 UTC.
Position N 57°26' E 010°32'.

Length 56 m; draft 4.5 m.

Type: Military. MMSI: 219263000.

Date/timePositionNaut miles runAvg speedWind from/ knotsBaromVisibWave heightAir tempDewpointWater temp
2014-Oct-23 10:26N 57°26' E 010°32'13 4.0
2014-Oct-23 07:17N 57°18' E 010°51'0 0.0
2014-Oct-23 06:20N 57°18' E 010°51'0 0.0
2014-Oct-23 05:21N 57°18' E 010°51'0 0.0
2014-Oct-23 04:24N 57°18' E 010°51'0 0.0
2014-Oct-23 03:28N 57°18' E 010°51'0 0.0
2014-Oct-23 02:23N 57°18' E 010°51'0 0.0
2014-Oct-23 01:32N 57°18' E 010°51'0 0.0
2014-Oct-23 00:30N 57°18' E 010°51'0 0.0
2014-Oct-22 23:16N 57°18' E 010°51'0 0.0
2014-Oct-22 22:25N 57°18' E 010°51'0 0.0
2014-Oct-22 21:26N 57°18' E 010°51'5 5.9
2014-Oct-22 20:31N 57°23' E 010°46'4 4.0
2014-Oct-22 19:33N 57°26' E 010°43'4 4.3
2014-Oct-22 18:33N 57°22' E 010°45'5 4.3
2014-Oct-22 17:20N 57°18' E 010°51'0 0.1
2014-Oct-22 16:31N 57°18' E 010°51'0 0.0
2014-Oct-22 15:29N 57°18' E 010°51'0 0.0
2014-Oct-22 12:10N 57°18' E 010°51'0 0.0
2014-Oct-22 10:33N 57°18' E 010°51'13 6.3
2014-Oct-22 08:33N 57°26' E 010°32'8 8.3
2014-Oct-22 07:33N 57°29' E 010°47'5 4.6
2014-Oct-22 06:33N 57°33' E 010°44'10 9.5
2014-Oct-22 05:29N 57°23' E 010°49'5 5.7
2014-Oct-22 04:33N 57°18' E 010°51'0 0.0
2014-Oct-22 02:25N 57°18' E 010°51'0 0.0
2014-Oct-22 01:32N 57°18' E 010°51'0 0.0
2014-Oct-22 00:30N 57°18' E 010°51'0 0.0
2014-Oct-21 20:11N 57°18' E 010°51'0 0.0
2014-Oct-21 19:03N 57°18' E 010°51'0 0.0
2014-Oct-21 18:25N 57°18' E 010°51'0 0.0
2014-Oct-21 17:10N 57°18' E 010°51'0 0.0
2014-Oct-21 16:23N 57°18' E 010°51'1 1.2
2014-Oct-21 15:32N 57°19' E 010°51'10 9.9
2014-Oct-21 14:33N 57°28' E 010°46'7 6.4
2014-Oct-21 13:27N 57°21' E 010°43'4 3.9
2014-Oct-21 12:30N 57°25' E 010°42'2 2.2
2014-Oct-21 11:29N 57°24' E 010°38'3 0.1
2014-Oct-19 19:14N 57°26' E 010°32'0 0.0
2014-Oct-19 18:32N 57°26' E 010°32'0 0.0
2014-Oct-19 17:12N 57°26' E 010°32'0 0.0
2014-Oct-19 05:05N 57°26' E 010°32'0 0.0
2014-Oct-18 17:04N 57°26' E 010°32'0 0.0
2014-Oct-18 16:29N 57°26' E 010°32'0 0.0
2014-Oct-18 15:21N 57°26' E 010°32'0 0.0
2014-Oct-18 14:33N 57°26' E 010°32'0 0.0
2014-Oct-18 02:29N 57°26' E 010°32'0 0.0
2014-Oct-18 01:33N 57°26' E 010°32'  
2014-Oct-14 01:16N 57°26' E 010°32'  
Track history (hours):
 
Tides and Currents Weather Stations Pressure Air Temp Water Temp Dewpoint Dewpoint Depression Visibility Wind Speed Wind Dir Waves Ship Positions

Oceanographic research ship Gunnar Thorson (Denmark)

Detailed information on ship capabilities available from University of Delaware's Ocean Information Center.

Last reported at 2014-Oct-23 10:26 UTC. Time now 2014-Oct-25 21:12 UTC.
Position N 57°26' E 010°32'.

Length 56 m; draft 4.5 m.

Type: Military. MMSI: 219263000.

Date/timePositionNaut miles runAvg speedWind from/ knotsBaromVisibWave heightAir tempDewpointWater temp
2014-Oct-23 10:26N 57°26' E 010°32'13 4.0
2014-Oct-23 07:17N 57°18' E 010°51'0 0.0
2014-Oct-23 06:20N 57°18' E 010°51'0 0.0
2014-Oct-23 05:21N 57°18' E 010°51'0 0.0
2014-Oct-23 04:24N 57°18' E 010°51'0 0.0
2014-Oct-23 03:28N 57°18' E 010°51'0 0.0
2014-Oct-23 02:23N 57°18' E 010°51'0 0.0
2014-Oct-23 01:32N 57°18' E 010°51'0 0.0
2014-Oct-23 00:30N 57°18' E 010°51'0 0.0
2014-Oct-22 23:16N 57°18' E 010°51'0 0.0
2014-Oct-22 22:25N 57°18' E 010°51'0 0.0
2014-Oct-22 21:26N 57°18' E 010°51'5 5.9
2014-Oct-22 20:31N 57°23' E 010°46'4 4.0
2014-Oct-22 19:33N 57°26' E 010°43'4 4.3
2014-Oct-22 18:33N 57°22' E 010°45'5 4.3
2014-Oct-22 17:20N 57°18' E 010°51'0 0.1
2014-Oct-22 16:31N 57°18' E 010°51'0 0.0
2014-Oct-22 15:29N 57°18' E 010°51'0 0.0
2014-Oct-22 12:10N 57°18' E 010°51'0 0.0
2014-Oct-22 10:33N 57°18' E 010°51'13 6.3
2014-Oct-22 08:33N 57°26' E 010°32'8 8.3
2014-Oct-22 07:33N 57°29' E 010°47'5 4.6
2014-Oct-22 06:33N 57°33' E 010°44'10 9.5
2014-Oct-22 05:29N 57°23' E 010°49'5 5.7
2014-Oct-22 04:33N 57°18' E 010°51'0 0.0
2014-Oct-22 02:25N 57°18' E 010°51'0 0.0
2014-Oct-22 01:32N 57°18' E 010°51'0 0.0
2014-Oct-22 00:30N 57°18' E 010°51'0 0.0
2014-Oct-21 20:11N 57°18' E 010°51'0 0.0
2014-Oct-21 19:03N 57°18' E 010°51'0 0.0
2014-Oct-21 18:25N 57°18' E 010°51'0 0.0
2014-Oct-21 17:10N 57°18' E 010°51'0 0.0
2014-Oct-21 16:23N 57°18' E 010°51'1 1.2
2014-Oct-21 15:32N 57°19' E 010°51'10 9.9
2014-Oct-21 14:33N 57°28' E 010°46'7 6.4
2014-Oct-21 13:27N 57°21' E 010°43'4 3.9
2014-Oct-21 12:30N 57°25' E 010°42'2 2.2
2014-Oct-21 11:29N 57°24' E 010°38'3 0.1
2014-Oct-19 19:14N 57°26' E 010°32'0 0.0
2014-Oct-19 18:32N 57°26' E 010°32'0 0.0
2014-Oct-19 17:12N 57°26' E 010°32'0 0.0
2014-Oct-19 05:05N 57°26' E 010°32'0 0.0
2014-Oct-18 17:04N 57°26' E 010°32'0 0.0
2014-Oct-18 16:29N 57°26' E 010°32'0 0.0
2014-Oct-18 15:21N 57°26' E 010°32'0 0.0
2014-Oct-18 14:33N 57°26' E 010°32'0 0.0
2014-Oct-18 02:29N 57°26' E 010°32'0 0.0
2014-Oct-18 01:33N 57°26' E 010°32'  
2014-Oct-14 01:16N 57°26' E 010°32'  

Dump ship's entire track history